Latest Weather Observations for Sydney - Observatory Hill

IDN60901

Issued at 6:51 am EST Sunday 30 August 2015 (issued every 10 minutes, with the page automatically refreshed every 10 minutes)

About weather observations | Map of Sydney area stations | Latest observations for Sydney area | Other Formats
Station Details ID: 066062 Name: SYDNEY (OBSERVATORY HILL) Lat: -33.86 Lon: 151.21 Height: 39.0 m
Data from the previous 72 hours. | See also: Recent months at Sydney - Observatory Hill

* Apparent temperature (App Temp) for Sydney - Observatory Hill is calculated using temperature observations collected at Sydney - Observatory Hill and wind observations collected at Fort Denison, as wind observations are not currently provided for Sydney - Observatory Hill.

Date/Time
EST
Tmp

°C
App
Tmp
°C
Dew
Point
°C
Rel
Hum
%
Delta-T

°C
Wind Press
QNH
hPa
Press
MSL
hPa
Rain
since
9 am
mm
Dir
 
Spd
km/h
Gust
km/h
Spd
kts
Gust
kts
30/06:30am 8.5 2.6 1.9 63 2.7 W 22 - 12 - 1019.6 1019.7 0.0
30/06:00am 8.5 1.9 2.1 64 2.7 W 26 - 14 - 1019.4 1019.5 0.0
30/05:30am 8.4 2.2 2.2 65 2.6 W 24 - 13 - 1019.2 1019.3 0.0
30/05:00am 8.8 2.2 1.9 62 2.9 W 26 - 14 - 1019.0 1019.0 0.0
30/04:30am 8.8 2.6 1.9 62 2.9 W 24 - 13 - 1019.0 1019.0 0.0
30/04:00am 9.0 3.1 1.9 61 2.9 W 22 - 12 - 1019.0 1019.0 0.0
30/03:30am 9.0 3.1 1.9 61 3.0 W 22 - 12 - 1019.1 1019.1 0.0
30/03:00am 9.1 2.9 2.0 61 3.0 W 24 - 13 - 1019.3 1019.4 0.0
30/02:30am 9.3 3.4 1.9 60 3.1 W 22 - 12 - 1019.6 1019.7 0.0
30/02:00am 9.7 3.8 1.8 58 3.3 W 22 - 12 - 1019.9 1019.9 0.0
30/01:30am 10.0 4.1 1.4 55 3.6 W 22 - 12 - 1020.3 1020.3 0.0
30/01:00am 10.3 4.7 1.4 54 3.7 W 20 - 11 - 1020.5 1020.5 0.0
30/12:30am 10.8 5.5 1.6 53 3.9 W 19 - 10 - 1020.6 1020.6 0.0
30/12:00am 11.3 6.3 1.3 50 4.2 WSW 17 - 9 - 1020.6 1020.6 0.0
 
Date/Time
EST
Tmp

°C
App
Tmp
°C
Dew
Point
°C
Rel
Hum
%
Delta-T

°C
Wind Press
QNH
hPa
Press
MSL
hPa
Rain
since
9 am
mm
Dir
 
Spd
km/h
Gust
km/h
Spd
kts
Gust
kts
29/11:30pm 11.4 6.0 1.4 50 4.2 W 19 - 10 - 1020.7 1020.7 0.0
29/11:00pm 12.0 7.0 1.1 47 4.6 WSW 17 - 9 - 1020.9 1020.9 0.0
29/10:30pm 12.4 7.4 1.1 46 4.8 WSW 17 - 9 - 1020.9 1020.9 0.0
29/10:00pm 12.6 8.3 1.3 46 4.8 SW 13 - 7 - 1020.8 1020.8 0.0
29/09:30pm 12.9 8.3 1.6 46 4.9 W 15 - 8 - 1020.9 1020.9 0.0
29/09:00pm 13.7 9.4 1.0 42 5.4 SW 13 - 7 - 1020.8 1020.8 0.0
29/08:30pm 14.0 10.1 3.5 49 4.7 SW 13 - 7 - 1020.4 1020.4 0.0
29/08:00pm 14.1 11.8 7.4 64 3.3 W 9 - 5 - 1020.1 1020.1 0.0
29/07:30pm 14.6 14.0 7.6 63 3.5 CALM 0 - 0 - 1019.6 1019.7 0.0
29/07:00pm 15.3 13.8 6.8 57 4.2 N 4 - 2 - 1019.2 1019.3 0.0
29/06:30pm 15.7 14.1 6.4 54 4.5 N 4 - 2 - 1019.0 1019.0 0.0
29/06:00pm 15.9 14.9 7.4 57 4.2 ENE 2 - 1 - 1018.7 1018.7 0.0
29/05:30pm 16.1 14.1 7.3 56 4.4 E 7 - 4 - 1018.3 1018.3 0.0
29/05:00pm 16.4 13.6 7.1 54 4.6 ENE 11 - 6 - 1017.9 1017.9 0.0
29/04:30pm 16.9 12.5 6.4 50 5.2 E 19 - 10 - 1017.8 1017.8 0.0
29/04:00pm 18.7 15.4 2.5 34 7.4 NE 9 - 5 - 1017.6 1017.6 0.0
29/03:30pm 19.8 15.8 3.1 33 7.8 W 13 - 7 - 1017.8 1017.8 0.0
29/03:00pm 20.1 15.7 2.5 31 8.2 WNW 15 - 8 - 1017.9 1017.9 0.0
29/02:30pm 19.8 16.1 2.6 32 8.0 NW 11 - 6 - 1018.2 1018.2 0.0
29/02:00pm 18.9 16.0 1.4 31 7.9 W 6 - 3 - 1018.5 1018.5 0.0
29/01:30pm 19.6 16.3 2.5 32 7.9 WNW 9 - 5 - 1018.9 1018.9 0.0
29/01:00pm 18.7 14.3 2.5 34 7.4 WNW 15 - 8 - 1019.4 1019.5 0.0
29/12:30pm 17.9 13.0 1.8 34 7.3 W 17 - 9 - 1020.1 1020.1 0.0
29/12:00pm 18.2 13.9 3.3 37 6.9 W 15 - 8 - 1020.8 1020.8 0.0
29/11:30am 17.1 13.8 4.4 43 6.0 W 11 - 6 - 1021.2 1021.2 0.0
29/11:00am 16.1 13.4 3.9 44 5.6 W 7 - 4 - 1021.6 1021.6 0.0
29/10:30am 15.4 12.9 5.0 50 4.9 WNW 7 - 4 - 1021.9 1021.9 0.0
29/10:00am 14.4 11.8 6.0 57 4.0 W 9 - 5 - 1022.1 1022.1 0.0
29/09:30am 13.6 10.6 6.0 60 3.6 WNW 11 - 6 - 1022.4 1022.4 0.0
29/09:00am 13.0 9.5 5.4 60 3.5 W 13 - 7 - 1022.7 1022.7 0.0
29/08:30am 13.5 9.7 5.9 60 3.6 WNW 15 - 8 - 1023.0 1023.0 0.0
29/08:00am 12.4 8.5 5.3 62 3.3 W 15 - 8 - 1023.0 1023.0 0.0
29/07:30am 11.6 8.2 5.9 68 2.7 W 13 - 7 - 1022.7 1022.7 0.0
29/07:00am 10.3 7.3 7.5 83 1.3 W 13 - 7 - 1022.5 1022.5 0.0
29/06:30am 9.1 5.9 6.9 86 1.0 W 13 - 7 - 1022.5 1022.5 0.0
29/06:00am 9.3 5.7 6.9 85 1.1 W 15 - 8 - 1022.3 1022.3 0.0
29/05:30am 9.6 5.9 6.5 81 1.4 WNW 15 - 8 - 1022.1 1022.1 0.0
29/05:00am 10.0 6.3 6.3 78 1.7 W 15 - 8 - 1022.0 1022.0 0.0
29/04:30am 10.2 6.1 6.2 76 1.9 W 17 - 9 - 1022.0 1022.0 0.0
29/04:00am 10.5 6.8 6.3 75 2.0 W 15 - 8 - 1021.8 1021.8 0.0
29/03:30am 10.7 7.0 6.3 74 2.1 W 15 - 8 - 1021.9 1021.9 0.0
29/03:00am 11.0 7.0 6.6 74 2.1 W 17 - 9 - 1022.0 1022.0 0.0
29/02:30am 11.2 7.1 6.1 71 2.4 WNW 17 - 9 - 1022.2 1022.2 0.0
29/02:00am 11.9 7.8 6.2 68 2.7 W 17 - 9 - 1022.4 1022.4 0.0
29/01:30am 11.4 8.5 8.3 81 1.5 W 13 - 7 - 1022.7 1022.7 0.0
29/01:00am 11.7 8.6 7.4 75 2.1 W 13 - 7 - 1022.8 1022.8 0.0
29/12:30am 12.3 8.9 7.6 73 2.3 W 15 - 8 - 1022.8 1022.8 0.0
29/12:00am 12.9 11.1 7.8 71 2.5 SW 7 - 4 - 1022.8 1022.8 0.0
 
Date/Time
EST
Tmp

°C
App
Tmp
°C
Dew
Point
°C
Rel
Hum
%
Delta-T

°C
Wind Press
QNH
hPa
Press
MSL
hPa
Rain
since
9 am
mm
Dir
 
Spd
km/h
Gust
km/h
Spd
kts
Gust
kts
28/11:30pm 12.9 11.0 9.0 77 2.0 W 9 - 5 - 1022.9 1022.9 0.0
28/11:00pm 13.4 11.6 9.3 76 2.1 SW 9 - 5 - 1023.1 1023.1 0.0
28/10:30pm 13.6 11.3 9.1 74 2.3 SW 11 - 6 - 1022.9 1022.9 0.0
28/10:00pm 14.0 12.1 9.2 73 2.4 SW 9 - 5 - 1023.0 1023.0 0.0
28/09:30pm 14.5 11.5 9.3 71 2.7 SSW 15 - 8 - 1022.9 1022.9 0.0
28/09:00pm 15.1 12.5 9.2 68 3.0 SSW 13 - 7 - 1022.6 1022.6 0.0
28/08:30pm 15.5 13.0 9.6 68 3.1 SSW 13 - 7 - 1022.3 1022.3 0.0
28/08:00pm 15.4 13.5 9.1 66 3.2 SSW 9 - 5 - 1021.9 1021.9 0.0
28/07:30pm 15.9 12.8 8.9 63 3.6 S 15 - 8 - 1021.7 1021.7 0.0
28/07:00pm 16.1 13.2 8.3 60 3.9 S 13 - 7 - 1021.3 1021.3 0.0
28/06:30pm 16.2 13.7 8.2 59 4.1 S 11 - 6 - 1021.2 1021.2 0.0
28/06:00pm 16.5 13.1 7.7 56 4.4 S 15 - 8 - 1020.8 1020.8 0.0
28/05:30pm 16.6 13.3 8.1 57 4.3 S 15 - 8 - 1020.5 1020.5 0.0
28/05:00pm 16.7 13.0 7.9 56 4.4 S 17 - 9 - 1020.1 1020.1 0.0
28/04:30pm 17.1 13.3 7.5 53 4.8 S 17 - 9 - 1019.8 1019.8 0.0
28/04:00pm 17.5 13.0 7.0 50 5.2 SSE 20 - 11 - 1019.5 1019.6 0.0
28/03:30pm 18.1 13.6 6.0 45 5.9 S 19 - 10 - 1019.2 1019.3 0.0
28/03:00pm 18.5 13.7 5.7 43 6.3 S 20 - 11 - 1018.9 1018.9 0.0
28/02:30pm 20.5 16.3 5.7 38 7.4 S 17 - 9 - 1018.6 1018.6 0.0
28/02:00pm 19.3 14.8 6.1 42 6.5 S 19 - 10 - 1018.6 1018.6 0.0
28/01:30pm 19.0 14.3 5.1 40 6.8 SSW 19 - 10 - 1018.6 1018.6 0.0
28/01:00pm 18.8 13.8 3.8 37 7.1 SW 19 - 10 - 1018.8 1018.8 0.0
28/12:30pm 18.4 13.8 3.5 37 7.0 SW 17 - 9 - 1019.2 1019.3 0.0
28/12:00pm 18.5 13.6 3.9 38 6.9 WSW 19 - 10 - 1019.4 1019.5 0.0
28/11:30am 17.5 11.6 4.1 41 6.3 WSW 24 - 13 - 1019.8 1019.8 0.0
28/11:00am 16.6 10.8 4.3 44 5.8 WSW 24 - 13 - 1020.0 1020.0 0.0
28/10:30am 16.5 10.3 4.2 44 5.8 WSW 26 - 14 - 1019.8 1019.8 0.0
28/10:00am 15.8 8.9 4.5 47 5.3 W 30 - 16 - 1019.9 1019.9 0.0
28/09:30am 15.2 7.6 4.0 47 5.2 WSW 33 - 18 - 1019.9 1019.9 0.0
28/09:00am 14.6 9.0 3.7 48 5.0 W 22 - 12 - 1019.8 1019.8 0.0
28/08:30am 14.5 10.0 4.2 50 4.7 W 17 - 9 - 1019.5 1019.6 0.0
28/08:00am 13.8 8.8 3.6 50 4.6 W 19 - 10 - 1019.0 1019.0 0.0
28/07:30am 13.7 8.6 4.0 52 4.4 WNW 20 - 11 - 1018.4 1018.4 0.0
28/07:00am 12.6 7.7 4.3 57 3.8 W 19 - 10 - 1018.0 1018.0 0.0
28/06:30am 11.6 7.9 4.3 61 3.3 WNW 13 - 7 - 1017.8 1017.8 0.0
28/06:00am 11.4 7.7 4.2 61 3.2 WNW 13 - 7 - 1017.6 1017.6 0.0
28/05:30am 11.1 7.5 4.8 65 2.9 WNW 13 - 7 - 1017.3 1017.3 0.0
28/05:00am 10.7 7.4 4.6 66 2.7 WNW 11 - 6 - 1017.0 1017.0 0.0
28/04:30am 10.6 6.1 4.3 65 2.8 WNW 17 - 9 - 1016.8 1016.8 0.0
28/04:00am 11.3 7.2 4.5 63 3.1 WNW 15 - 8 - 1016.7 1016.7 0.0
28/03:30am 11.3 7.6 4.5 63 3.1 WNW 13 - 7 - 1016.6 1016.6 0.0
28/03:00am 11.4 8.1 4.4 62 3.2 WNW 11 - 6 - 1016.7 1016.7 0.0
28/02:30am 11.4 7.7 4.6 63 3.1 W 13 - 7 - 1016.9 1016.9 0.0
28/02:00am 10.9 7.0 5.2 68 2.6 NW 15 - 8 - 1017.1 1017.1 0.0
28/01:30am 11.2 7.7 5.3 67 2.7 NW 13 - 7 - 1017.6 1017.6 0.0
28/01:00am 11.5 7.9 5.2 65 2.9 W 13 - 7 - 1017.7 1017.7 0.0
28/12:30am 11.7 7.7 5.1 64 3.0 WNW 15 - 8 - 1017.8 1017.8 0.0
28/12:00am 12.1 8.6 5.3 63 3.1 WNW 13 - 7 - 1017.7 1017.7 0.0
 
Date/Time
EST
Tmp

°C
App
Tmp
°C
Dew
Point
°C
Rel
Hum
%
Delta-T

°C
Wind Press
QNH
hPa
Press
MSL
hPa
Rain
since
9 am
mm
Dir
 
Spd
km/h
Gust
km/h
Spd
kts
Gust
kts
27/11:30pm 12.6 9.0 5.1 60 3.5 WNW 13 - 7 - 1017.9 1017.9 0.0
27/11:00pm 12.9 9.3 4.8 58 3.7 WNW 13 - 7 - 1017.7 1017.7 0.0
27/10:30pm 13.4 9.4 4.8 56 4.0 WNW 15 - 8 - 1017.7 1017.7 0.0
27/10:00pm 13.6 8.8 4.7 55 4.1 NW 19 - 10 - 1017.7 1017.7 0.0
27/09:30pm 14.0 9.1 4.9 54 4.2 NW 20 - 11 - 1017.8 1017.8 0.0
27/09:00pm 14.4 10.1 5.2 54 4.3 NW 17 - 9 - 1017.7 1017.7 0.0
27/08:30pm 14.5 12.1 5.3 54 4.3 WNW 7 - 4 - 1017.6 1017.6 0.0
27/08:00pm 15.0 10.1 5.0 51 4.7 WNW 20 - 11 - 1017.5 1017.5 0.0
27/07:30pm 15.7 11.6 6.4 54 4.5 WNW 17 - 9 - 1017.3 1017.3 0.0
27/07:00pm 16.0 11.6 6.7 54 4.6 W 19 - 10 - 1017.1 1017.1 0.0
27/06:30pm 16.6 10.3 5.9 49 5.2 WSW 28 - 15 - 1016.8 1016.8 0.0
27/06:00pm 17.5 14.0 8.6 56 4.6 NW 17 - 9 - 1016.3 1016.3 0.0
27/05:30pm 17.4 15.0 8.5 56 4.6 NW 11 - 6 - 1015.7 1015.7 0.0
27/05:00pm 17.7 14.5 8.3 54 4.8 NNW 15 - 8 - 1015.3 1015.3 0.0
27/04:30pm 18.5 15.0 8.7 53 5.1 N 17 - 9 - 1015.0 1015.0 0.0
27/04:00pm 18.8 14.3 8.5 51 5.3 NNW 22 - 12 - 1015.1 1015.1 0.0
27/03:30pm 19.6 15.8 7.4 45 6.2 NW 17 - 9 - 1015.1 1015.1 0.0
27/03:00pm 20.1 16.3 7.5 44 6.5 NW 17 - 9 - 1015.1 1015.1 0.0
27/02:30pm 19.6 15.0 8.0 47 6.0 NW 22 - 12 - 1015.5 1015.5 0.0
27/02:00pm 19.9 16.4 10.3 54 5.2 NW 19 - 10 - 1015.7 1015.7 0.0
27/01:30pm 19.3 18.4 10.6 57 4.7 WNW 6 - 3 - 1015.7 1015.7 0.0
27/01:00pm 18.7 17.3 11.0 61 4.2 WNW 9 - 5 - 1016.3 1016.3 0.0
27/12:30pm 18.2 16.4 11.0 63 3.9 W 11 - 6 - 1016.7 1016.7 0.0
27/12:00pm 18.1 16.0 11.2 64 3.7 WNW 13 - 7 - 1017.0 1017.0 0.0
27/11:30am 18.0 15.7 11.8 67 3.4 W 15 - 8 - 1017.6 1017.6 0.0
27/11:00am 17.1 14.3 11.4 69 3.1 WNW 17 - 9 - 1018.0 1018.0 0.0
27/10:30am 16.8 17.0 11.7 72 2.8 NW 2 - 1 - 1018.4 1018.4 0.0
27/10:00am 16.4 16.2 13.1 81 1.8 WNW 6 - 3 - 1018.8 1018.8 0.0
27/09:30am 15.6 15.6 12.4 81 1.8 WNW 4 - 2 - 1019.2 1019.3 0.0
27/09:00am 15.1 14.3 13.0 87 1.2 W 9 - 5 - 1019.6 1019.7 0.0
27/08:30am 14.1 12.5 12.7 91 0.8 W 13 - 7 - 1019.9 1019.9 0.0
27/08:00am 13.2 11.8 12.3 94 0.5 W 11 - 6 - 1019.6 1019.7 0.0
27/07:30am 12.8 12.1 12.0 95 0.4 W 7 - 4 - 1019.1 1019.1 0.0
27/07:00am 12.5 10.6 11.9 96 0.3 W 13 - 7 - 1019.4 1019.5 0.0

Latest Capital City Observations: Canberra | Sydney | Melbourne | Brisbane | Adelaide | Perth | Hobart | Darwin

Other Formats:

Comma delimited format used in spreadsheet applications
http://www.bom.gov.au/fwo/IDN60901/IDN60901.94768.axf

JavaScript Object Notation format (JSON) in row-major order
http://www.bom.gov.au/fwo/IDN60901/IDN60901.94768.json